Terminal Aerodrome Forecast
Issued by NWS

Home | Current Version | Previous Version | Graphics & Text | Print | Product List | Glossary On
Versions: 1 2 3 4 5 6 7 8 9 10 11 12 13 14 15 16 17 18 19 20 21 22 23 24 25 26 27 28 29
000
FTUS43 KICT 232340
TAFHUT
TAF
KHUT 232340Z 2400/2424 10012KT P6SM -RA OVC080
     FM240300 13011KT 4SM BR VCSH OVC005
     FM240700 15008KT 1SM BR OVC003
     FM241500 16008KT 4SM BR OVC011
     FM241900 15011KT P6SM VCTS SCT020 BKN035CB=

USA.gov is the U.S. government's official web portal to all federal, state and local government web resources and services.